createdAt,value
2022-09-26T00:01:53.106Z,10.30
2022-09-26T00:04:54.726Z,11.12
2022-09-26T00:08:09.895Z,10.25
2022-09-26T00:11:19.894Z,11.12
2022-09-26T00:14:36.898Z,9.77
2022-09-26T00:17:45.380Z,10.68
2022-09-26T00:20:53.841Z,10.50
2022-09-26T00:24:09.880Z,10.95
2022-09-26T00:27:24.839Z,10.73
2022-09-26T00:30:26.711Z,10.63
2022-09-26T00:33:42.890Z,11.25
2022-09-26T00:36:51.343Z,10.88
2022-09-26T00:39:59.847Z,9.98
2022-09-26T00:43:26.487Z,11.30
2022-09-26T00:46:48.863Z,11.23
2022-09-26T00:50:02.140Z,11.23
2022-09-26T00:53:21.876Z,11.73
2022-09-26T00:56:30.837Z,11.00
2022-09-26T00:59:49.869Z,10.93
2022-09-26T01:02:58.803Z,10.27
2022-09-26T01:06:07.852Z,10.40
2022-09-26T01:09:22.867Z,10.85
2022-09-26T01:12:32.738Z,9.95
2022-09-26T01:15:41.875Z,9.77
2022-09-26T01:18:56.908Z,10.30
2022-09-26T01:22:30.329Z,10.20
2022-09-26T01:26:14.932Z,9.90
2022-09-26T01:29:54.893Z,9.95
2022-09-26T01:33:21.986Z,10.15
2022-09-26T01:37:03.864Z,9.80
2022-09-26T01:40:30.978Z,10.45
2022-09-26T01:43:48.179Z,10.68
2022-09-26T01:47:11.912Z,10.32
2022-09-26T01:50:35.856Z,10.05
2022-09-26T01:53:43.922Z,11.07
2022-09-26T01:57:01.964Z,11.20
2022-09-26T02:00:06.683Z,10.93
2022-09-26T02:03:25.939Z,10.30
2022-09-26T02:06:50.876Z,9.95
2022-09-26T02:09:58.171Z,10.23
2022-09-26T02:13:20.869Z,11.02
2022-09-26T02:16:44.940Z,10.02
2022-09-26T02:19:53.660Z,10.73
2022-09-26T02:23:08.872Z,10.57
2022-09-26T02:26:16.875Z,11.10
2022-09-26T02:29:25.802Z,11.05
2022-09-26T02:32:41.918Z,11.65
2022-09-26T02:35:49.960Z,10.48
2022-09-26T02:39:04.864Z,11.12
2022-09-26T02:42:38.871Z,10.93
2022-09-26T02:45:47.305Z,10.75
2022-09-26T02:49:32.898Z,11.48
2022-09-26T02:53:04.921Z,10.85
2022-09-26T02:56:24.755Z,10.40
2022-09-26T02:59:52.911Z,11.07
2022-09-26T03:03:07.906Z,10.82
2022-09-26T03:06:20.177Z,11.10
2022-09-26T03:09:36.888Z,11.10
2022-09-26T03:12:39.920Z,11.73
2022-09-26T03:15:59.936Z,11.13
2022-09-26T03:19:16.668Z,11.93
2022-09-26T03:22:24.893Z,12.02
2022-09-26T03:25:39.907Z,11.73
2022-09-26T03:28:41.626Z,12.20
2022-09-26T03:31:55.960Z,12.23
2022-09-26T03:35:10.952Z,11.75
2022-09-26T03:38:18.979Z,12.63
2022-09-26T03:41:34.232Z,11.50
2022-09-26T03:44:48.891Z,13.23
2022-09-26T03:47:58.259Z,12.80
2022-09-26T03:51:15.896Z,13.40
2022-09-26T03:54:17.458Z,13.30
2022-09-26T03:57:31.882Z,13.00
2022-09-26T04:00:40.781Z,12.90
2022-09-26T04:03:51.439Z,13.10
2022-09-26T04:07:00.106Z,12.88
2022-09-26T04:10:14.899Z,13.60
2022-09-26T04:13:49.579Z,14.55
2022-09-26T04:16:51.823Z,15.32
2022-09-26T04:20:06.993Z,14.40
2022-09-26T04:23:14.914Z,14.70
2022-09-26T04:26:29.911Z,14.10
2022-09-26T04:29:31.506Z,14.75
2022-09-26T04:32:45.911Z,13.82
2022-09-26T04:36:01.963Z,14.47
2022-09-26T04:39:04.508Z,13.43
2022-09-26T04:42:25.905Z,14.73
2022-09-26T04:45:34.347Z,13.55
2022-09-26T04:48:42.948Z,13.88
2022-09-26T04:51:51.404Z,14.13
2022-09-26T04:54:59.914Z,14.18
2022-09-26T04:58:14.920Z,14.00
2022-09-26T05:01:31.943Z,14.27
2022-09-26T05:04:34.239Z,13.07
2022-09-26T05:07:49.986Z,13.33
2022-09-26T05:10:58.431Z,13.07
2022-09-26T05:14:06.985Z,13.55
2022-09-26T05:17:15.517Z,13.68
2022-09-26T05:20:23.965Z,14.02
2022-09-26T05:23:33.421Z,13.17
2022-09-26T05:26:54.971Z,12.88
2022-09-26T05:29:56.554Z,13.45
2022-09-26T05:33:11.957Z,14.82
2022-09-26T05:36:20.558Z,15.15
2022-09-26T05:39:28.987Z,13.17
2022-09-26T05:42:50.976Z,14.63
2022-09-26T05:46:08.931Z,15.52
2022-09-26T05:49:10.585Z,13.65
2022-09-26T05:52:24.990Z,14.23
2022-09-26T05:55:28.479Z,13.60
2022-09-26T05:58:45.949Z,14.75
2022-09-26T06:01:54.658Z,15.05
2022-09-26T06:05:03.023Z,14.27
2022-09-26T06:08:21.011Z,14.40
2022-09-26T06:11:29.727Z,14.80
2022-09-26T06:18:04.955Z,13.80
2022-09-26T06:21:17.955Z,14.85
2022-09-26T06:24:33.382Z,14.93
2022-09-26T06:27:41.543Z,13.33
2022-09-26T06:30:50.060Z,14.48
2022-09-26T06:34:21.580Z,15.52
2022-09-26T06:37:36.054Z,15.75
2022-09-26T06:40:45.132Z,15.55
2022-09-26T06:44:07.063Z,15.67
2022-09-26T06:47:15.728Z,14.40
2022-09-26T06:50:23.967Z,14.38
2022-09-26T06:53:32.871Z,14.80
2022-09-26T06:56:50.059Z,14.87
2022-09-26T07:00:55.959Z,14.07
2022-09-26T07:08:50.482Z,16.08
2022-09-26T07:12:14.548Z,16.42
2022-09-26T07:15:44.773Z,15.40
2022-09-26T07:19:05.296Z,15.37
2022-09-26T07:22:53.699Z,16.80
2022-09-26T07:26:25.044Z,15.95
2022-09-26T07:29:36.076Z,16.42
2022-09-26T07:41:03.714Z,14.90
2022-09-26T07:45:20.950Z,16.65
2022-09-26T07:48:08.752Z,15.70
2022-09-26T07:51:18.011Z,15.07
2022-09-26T07:54:46.403Z,15.10
2022-09-26T07:58:13.990Z,14.20
2022-09-26T08:01:29.428Z,15.35
2022-09-26T08:05:04.828Z,15.35
2022-09-26T08:12:09.062Z,14.70
2022-09-26T08:15:27.256Z,14.85
2022-09-26T08:18:36.064Z,15.00
2022-09-26T08:21:54.966Z,14.65
2022-09-26T08:25:08.724Z,13.85
2022-09-26T08:32:36.505Z,15.05
2022-09-26T08:44:47.947Z,13.10
2022-09-26T08:48:49.476Z,11.77
2022-09-26T08:52:19.820Z,11.50
2022-09-26T08:55:47.327Z,10.02
2022-09-26T09:11:32.155Z,6.25
2022-09-26T09:15:29.843Z,6.60
2022-09-26T09:19:37.203Z,6.40
2022-09-26T09:31:30.220Z,5.50
2022-09-26T09:38:38.855Z,5.07
2022-09-26T10:02:15.080Z,3.50
2022-09-26T10:06:45.861Z,3.93
2022-09-26T10:10:04.052Z,4.15
2022-09-26T10:31:42.858Z,3.72
2022-09-26T10:35:31.263Z,3.25
2022-09-26T10:39:14.066Z,3.20
2022-09-26T10:42:53.362Z,3.03
2022-09-26T10:51:49.340Z,2.53
2022-09-26T10:55:01.411Z,2.95
2022-09-26T11:55:16.568Z,2.33
2022-09-26T12:03:43.853Z,2.60
2022-09-26T12:23:01.705Z,2.50
2022-09-26T13:03:00.930Z,2.00
2022-09-26T13:27:45.064Z,1.90
2022-09-26T13:43:24.283Z,1.90
2022-09-26T14:03:47.129Z,2.40
2022-09-26T14:07:24.412Z,2.28
2022-09-26T14:11:11.303Z,2.72
2022-09-26T14:14:47.119Z,2.97
2022-09-26T14:18:37.319Z,2.78
2022-09-26T14:22:09.432Z,2.60
2022-09-26T14:34:10.332Z,2.78
2022-09-26T14:37:50.365Z,2.53
2022-09-26T14:41:06.110Z,2.60
2022-09-26T14:44:48.317Z,2.30
2022-09-26T14:52:35.501Z,2.53
2022-09-26T15:00:49.754Z,2.70
2022-09-26T15:08:53.106Z,2.78
2022-09-26T15:16:46.839Z,2.78
2022-09-26T15:19:59.445Z,2.50
2022-09-26T15:27:26.909Z,2.40
2022-09-26T15:30:37.030Z,3.17
2022-09-26T15:34:18.917Z,2.37
2022-09-26T15:37:24.691Z,2.23
2022-09-26T15:40:39.046Z,2.37
2022-09-26T15:43:47.591Z,2.67
2022-09-26T15:46:56.962Z,2.50
2022-09-26T15:50:27.302Z,2.70
2022-09-26T15:53:53.145Z,2.40
2022-09-26T15:57:09.936Z,2.72
2022-09-26T16:00:19.172Z,2.50
2022-09-26T16:07:39.030Z,2.85
2022-09-26T16:10:59.529Z,2.60
2022-09-26T16:14:07.915Z,3.03
2022-09-26T16:17:48.194Z,2.90
2022-09-26T16:21:17.423Z,3.75
2022-09-26T16:24:41.096Z,6.10
2022-09-26T16:35:46.805Z,4.97
2022-09-26T16:38:59.946Z,5.30
2022-09-26T16:42:17.186Z,3.85
2022-09-26T16:45:34.972Z,4.20
2022-09-26T16:48:54.156Z,4.15
2022-09-26T16:52:27.906Z,4.82
2022-09-26T16:55:44.915Z,4.57
2022-09-26T16:58:54.616Z,4.62
2022-09-26T17:02:15.974Z,5.47
2022-09-26T17:05:40.935Z,4.60
2022-09-26T17:09:36.141Z,4.30
2022-09-26T17:21:29.028Z,10.73
2022-09-26T17:44:03.469Z,9.23
2022-09-26T17:46:49.684Z,10.37
2022-09-26T17:54:22.687Z,7.12
2022-09-26T17:55:12.043Z,7.00
2022-09-26T18:22:02.947Z,6.57
2022-09-26T18:25:44.152Z,7.15
2022-09-26T18:41:21.987Z,8.02
2022-09-26T18:45:08.933Z,8.70
2022-09-26T18:48:37.940Z,9.55
2022-09-26T18:52:01.790Z,9.20
2022-09-26T18:55:39.053Z,8.17
2022-09-26T19:18:37.437Z,9.27
2022-09-26T19:30:31.967Z,11.10
2022-09-26T19:35:03.879Z,10.70
2022-09-26T19:38:50.849Z,10.60
2022-09-26T19:42:03.109Z,12.00
2022-09-26T19:45:41.451Z,10.68
2022-09-26T19:48:43.275Z,12.23
2022-09-26T20:14:25.974Z,11.63
2022-09-26T20:17:42.984Z,12.02
2022-09-26T20:21:22.941Z,11.90
2022-09-26T20:24:53.977Z,12.30
2022-09-26T20:28:08.922Z,11.63
2022-09-26T20:31:21.914Z,11.40
2022-09-26T20:34:29.951Z,11.50
2022-09-26T20:37:40.292Z,10.25
2022-09-26T20:40:49.003Z,11.50
2022-09-26T20:44:07.980Z,9.80
2022-09-26T20:47:19.954Z,9.40
2022-09-26T20:50:33.813Z,9.68
2022-09-26T20:53:49.297Z,9.82
2022-09-26T20:57:04.943Z,9.88
2022-09-26T21:00:08.469Z,9.10
2022-09-26T21:03:24.964Z,8.85
2022-09-26T21:06:34.374Z,8.88
2022-09-26T21:10:02.052Z,8.80
2022-09-26T21:13:43.935Z,9.30
2022-09-26T21:17:19.136Z,8.30
2022-09-26T21:20:32.946Z,8.60
2022-09-26T21:23:49.972Z,10.07
2022-09-26T21:27:17.351Z,9.25
2022-09-26T21:30:27.011Z,9.80
2022-09-26T21:33:47.434Z,8.87
2022-09-26T21:36:59.923Z,9.32
2022-09-26T21:40:09.460Z,10.10
2022-09-26T21:43:28.939Z,9.43
2022-09-26T21:46:30.778Z,10.38
2022-09-26T21:49:46.235Z,11.17
2022-09-26T21:53:02.020Z,10.77
2022-09-26T21:56:16.951Z,11.18
2022-09-26T21:59:25.692Z,10.20
2022-09-26T22:02:34.111Z,9.60
2022-09-26T22:05:42.604Z,9.07
2022-09-26T22:08:57.295Z,7.00
2022-09-26T22:11:58.903Z,9.00
2022-09-26T22:15:20.988Z,8.25
2022-09-26T22:18:29.571Z,7.90
2022-09-26T22:21:37.967Z,7.20
2022-09-26T22:24:52.954Z,7.95
2022-09-26T22:28:01.938Z,7.18
2022-09-26T22:31:11.024Z,7.07
2022-09-26T22:34:20.695Z,7.43
2022-09-26T22:37:28.975Z,7.13
2022-09-26T22:40:37.789Z,7.28
2022-09-26T22:43:51.985Z,7.82
2022-09-26T22:46:53.622Z,7.82
2022-09-26T22:50:07.979Z,6.95
2022-09-26T22:53:09.902Z,7.63
2022-09-26T22:56:44.983Z,7.10
2022-09-26T22:59:46.942Z,7.70
2022-09-26T23:03:02.001Z,7.37
2022-09-26T23:06:11.402Z,7.55
2022-09-26T23:09:19.994Z,7.57
2022-09-26T23:12:42.007Z,7.32
2022-09-26T23:15:51.010Z,7.37
2022-09-26T23:18:59.563Z,8.18
2022-09-26T23:22:08.021Z,7.87
2022-09-26T23:25:23.033Z,8.17
2022-09-26T23:28:39.261Z,8.55
2022-09-26T23:31:46.967Z,9.02
2022-09-26T23:34:55.700Z,9.13
2022-09-26T23:38:05.285Z,9.80
2022-09-26T23:41:33.326Z,9.77
2022-09-26T23:44:48.000Z,9.15
2022-09-26T23:47:56.286Z,9.60
2022-09-26T23:51:05.439Z,9.38
2022-09-26T23:54:35.097Z,9.55
2022-09-26T23:57:36.664Z,11.20
